sensor_id;sensor_type;location;lat;lon;timestamp;temperature;humidity
790;DHT22;378;48.844;9.156;2022-10-26T00:01:03;12.00;99.90
790;DHT22;378;48.844;9.156;2022-10-26T00:03:31;12.10;99.90
790;DHT22;378;48.844;9.156;2022-10-26T00:06:04;12.10;99.90
790;DHT22;378;48.844;9.156;2022-10-26T00:08:31;12.10;99.90
790;DHT22;378;48.844;9.156;2022-10-26T00:10:57;12.10;99.90
790;DHT22;378;48.844;9.156;2022-10-26T00:13:24;12.20;99.90
790;DHT22;378;48.844;9.156;2022-10-26T00:15:51;12.30;99.90
790;DHT22;378;48.844;9.156;2022-10-26T00:18:19;12.30;99.90
790;DHT22;378;48.844;9.156;2022-10-26T00:20:46;12.30;99.90
790;DHT22;378;48.844;9.156;2022-10-26T00:23:13;12.30;99.90
790;DHT22;378;48.844;9.156;2022-10-26T00:25:40;12.30;99.90
790;DHT22;378;48.844;9.156;2022-10-26T00:28:07;12.40;99.90
790;DHT22;378;48.844;9.156;2022-10-26T00:30:34;12.40;99.90
790;DHT22;378;48.844;9.156;2022-10-26T00:33:01;12.40;99.90
790;DHT22;378;48.844;9.156;2022-10-26T00:35:29;12.50;99.90
790;DHT22;378;48.844;9.156;2022-10-26T00:37:56;12.50;99.90
790;DHT22;378;48.844;9.156;2022-10-26T00:40:26;12.50;99.90
790;DHT22;378;48.844;9.156;2022-10-26T00:42:53;12.50;99.90
790;DHT22;378;48.844;9.156;2022-10-26T00:45:22;12.40;99.90
790;DHT22;378;48.844;9.156;2022-10-26T00:47:52;12.40;99.90
790;DHT22;378;48.844;9.156;2022-10-26T00:50:25;12.40;99.90
790;DHT22;378;48.844;9.156;2022-10-26T00:52:54;12.40;99.90
790;DHT22;378;48.844;9.156;2022-10-26T00:55:27;12.30;99.90
790;DHT22;378;48.844;9.156;2022-10-26T00:57:55;12.30;99.90
790;DHT22;378;48.844;9.156;2022-10-26T01:00:22;12.40;99.90
790;DHT22;378;48.844;9.156;2022-10-26T01:02:50;12.30;99.90
790;DHT22;378;48.844;9.156;2022-10-26T01:05:18;12.40;99.90
790;DHT22;378;48.844;9.156;2022-10-26T01:07:46;12.50;99.90
790;DHT22;378;48.844;9.156;2022-10-26T01:10:16;12.50;99.90
790;DHT22;378;48.844;9.156;2022-10-26T01:12:43;12.40;99.90
790;DHT22;378;48.844;9.156;2022-10-26T01:15:11;12.40;99.90
790;DHT22;378;48.844;9.156;2022-10-26T01:17:50;12.40;99.90
790;DHT22;378;48.844;9.156;2022-10-26T01:20:38;12.30;99.90
790;DHT22;378;48.844;9.156;2022-10-26T01:23:14;12.30;99.90
790;DHT22;378;48.844;9.156;2022-10-26T01:25:59;12.30;99.90
790;DHT22;378;48.844;9.156;2022-10-26T01:28:34;12.30;99.90
790;DHT22;378;48.844;9.156;2022-10-26T01:31:08;12.20;99.90
790;DHT22;378;48.844;9.156;2022-10-26T01:33:38;12.20;99.90
790;DHT22;378;48.844;9.156;2022-10-26T01:36:11;12.20;99.90
790;DHT22;378;48.844;9.156;2022-10-26T01:38:46;12.20;99.90
790;DHT22;378;48.844;9.156;2022-10-26T01:41:19;12.30;99.90
790;DHT22;378;48.844;9.156;2022-10-26T01:43:51;12.30;99.90
790;DHT22;378;48.844;9.156;2022-10-26T01:46:23;12.30;99.90
790;DHT22;378;48.844;9.156;2022-10-26T01:48:54;12.30;99.90
790;DHT22;378;48.844;9.156;2022-10-26T01:51:23;12.20;99.90
790;DHT22;378;48.844;9.156;2022-10-26T01:53:50;12.20;99.90
790;DHT22;378;48.844;9.156;2022-10-26T01:56:20;12.30;99.90
790;DHT22;378;48.844;9.156;2022-10-26T01:59:18;12.20;99.90
790;DHT22;378;48.844;9.156;2022-10-26T02:05:07;12.10;99.90
790;DHT22;378;48.844;9.156;2022-10-26T02:07:41;12.10;99.90
790;DHT22;378;48.844;9.156;2022-10-26T02:10:16;12.10;99.90
790;DHT22;378;48.844;9.156;2022-10-26T02:12:50;12.00;99.90
790;DHT22;378;48.844;9.156;2022-10-26T02:15:21;12.00;99.90
790;DHT22;378;48.844;9.156;2022-10-26T02:17:57;11.90;99.90
790;DHT22;378;48.844;9.156;2022-10-26T02:20:27;12.00;99.90
790;DHT22;378;48.844;9.156;2022-10-26T02:22:57;11.90;99.90
790;DHT22;378;48.844;9.156;2022-10-26T02:25:28;11.90;99.90
790;DHT22;378;48.844;9.156;2022-10-26T02:27:58;11.90;99.90
790;DHT22;378;48.844;9.156;2022-10-26T02:30:25;11.90;99.90
790;DHT22;378;48.844;9.156;2022-10-26T02:32:55;11.90;99.90
790;DHT22;378;48.844;9.156;2022-10-26T02:35:27;11.90;99.90
790;DHT22;378;48.844;9.156;2022-10-26T02:37:57;12.00;99.90
790;DHT22;378;48.844;9.156;2022-10-26T02:40:27;12.00;99.90
790;DHT22;378;48.844;9.156;2022-10-26T02:42:56;12.00;99.90
790;DHT22;378;48.844;9.156;2022-10-26T02:45:27;12.00;99.90
790;DHT22;378;48.844;9.156;2022-10-26T02:47:58;12.00;99.90
790;DHT22;378;48.844;9.156;2022-10-26T02:50:28;12.00;99.90
790;DHT22;378;48.844;9.156;2022-10-26T02:53:04;11.90;99.90
790;DHT22;378;48.844;9.156;2022-10-26T02:55:39;11.90;99.90
790;DHT22;378;48.844;9.156;2022-10-26T02:58:13;11.90;99.90
790;DHT22;378;48.844;9.156;2022-10-26T03:00:42;12.00;99.90
790;DHT22;378;48.844;9.156;2022-10-26T03:03:11;11.90;99.90
790;DHT22;378;48.844;9.156;2022-10-26T03:05:41;11.90;99.90
790;DHT22;378;48.844;9.156;2022-10-26T03:08:08;11.80;99.90
790;DHT22;378;48.844;9.156;2022-10-26T03:10:39;11.80;99.90
790;DHT22;378;48.844;9.156;2022-10-26T03:13:07;11.80;99.90
790;DHT22;378;48.844;9.156;2022-10-26T03:15:33;11.80;99.90
790;DHT22;378;48.844;9.156;2022-10-26T03:18:00;11.80;99.90
790;DHT22;378;48.844;9.156;2022-10-26T03:20:29;11.90;99.90
790;DHT22;378;48.844;9.156;2022-10-26T03:22:55;11.90;99.90
790;DHT22;378;48.844;9.156;2022-10-26T03:25:22;11.90;99.90
790;DHT22;378;48.844;9.156;2022-10-26T03:27:55;11.90;99.90
790;DHT22;378;48.844;9.156;2022-10-26T03:30:22;12.00;99.90
790;DHT22;378;48.844;9.156;2022-10-26T03:32:49;12.00;99.90
790;DHT22;378;48.844;9.156;2022-10-26T03:35:16;12.10;99.90
790;DHT22;378;48.844;9.156;2022-10-26T03:37:44;12.10;99.90
790;DHT22;378;48.844;9.156;2022-10-26T03:40:11;12.10;99.90
790;DHT22;378;48.844;9.156;2022-10-26T03:42:39;12.10;99.90
790;DHT22;378;48.844;9.156;2022-10-26T03:45:07;12.10;99.90
790;DHT22;378;48.844;9.156;2022-10-26T03:47:39;12.20;99.90
790;DHT22;378;48.844;9.156;2022-10-26T03:50:08;12.20;99.90
790;DHT22;378;48.844;9.156;2022-10-26T03:52:35;12.20;99.90
790;DHT22;378;48.844;9.156;2022-10-26T03:55:04;12.20;99.90
790;DHT22;378;48.844;9.156;2022-10-26T03:57:31;12.20;99.90
790;DHT22;378;48.844;9.156;2022-10-26T03:59:58;12.20;99.90
790;DHT22;378;48.844;9.156;2022-10-26T04:02:25;12.20;99.90
790;DHT22;378;48.844;9.156;2022-10-26T04:04:52;12.10;99.90
790;DHT22;378;48.844;9.156;2022-10-26T04:07:18;12.00;99.90
790;DHT22;378;48.844;9.156;2022-10-26T04:09:45;12.00;99.90
790;DHT22;378;48.844;9.156;2022-10-26T04:12:13;11.90;99.90
790;DHT22;378;48.844;9.156;2022-10-26T04:14:40;12.00;99.90
790;DHT22;378;48.844;9.156;2022-10-26T04:17:07;12.00;99.90
790;DHT22;378;48.844;9.156;2022-10-26T04:19:34;12.00;99.90
790;DHT22;378;48.844;9.156;2022-10-26T04:22:00;12.10;99.90
790;DHT22;378;48.844;9.156;2022-10-26T04:24:27;12.10;99.90
790;DHT22;378;48.844;9.156;2022-10-26T04:26:54;12.20;99.90
790;DHT22;378;48.844;9.156;2022-10-26T04:29:22;12.20;99.90
790;DHT22;378;48.844;9.156;2022-10-26T04:31:49;12.30;99.90
790;DHT22;378;48.844;9.156;2022-10-26T04:34:16;12.30;99.90
790;DHT22;378;48.844;9.156;2022-10-26T04:36:43;12.30;99.90
790;DHT22;378;48.844;9.156;2022-10-26T04:39:09;12.30;99.90
790;DHT22;378;48.844;9.156;2022-10-26T04:41:36;12.40;99.90
790;DHT22;378;48.844;9.156;2022-10-26T04:44:03;12.50;99.90
790;DHT22;378;48.844;9.156;2022-10-26T04:46:31;12.60;99.90
790;DHT22;378;48.844;9.156;2022-10-26T04:48:58;12.60;99.90
790;DHT22;378;48.844;9.156;2022-10-26T04:51:25;12.60;99.90
790;DHT22;378;48.844;9.156;2022-10-26T04:53:52;12.50;99.90
790;DHT22;378;48.844;9.156;2022-10-26T04:56:19;12.50;99.90
790;DHT22;378;48.844;9.156;2022-10-26T04:58:46;12.40;99.90
790;DHT22;378;48.844;9.156;2022-10-26T05:01:13;12.30;99.90
790;DHT22;378;48.844;9.156;2022-10-26T05:03:41;12.30;99.90
790;DHT22;378;48.844;9.156;2022-10-26T05:06:08;12.30;99.90
790;DHT22;378;48.844;9.156;2022-10-26T05:08:35;12.20;99.90
790;DHT22;378;48.844;9.156;2022-10-26T05:11:02;12.20;99.90
790;DHT22;378;48.844;9.156;2022-10-26T05:13:28;12.20;99.90
790;DHT22;378;48.844;9.156;2022-10-26T05:15:55;12.30;99.90
790;DHT22;378;48.844;9.156;2022-10-26T05:18:22;12.30;99.90
790;DHT22;378;48.844;9.156;2022-10-26T05:20:53;12.40;99.90
790;DHT22;378;48.844;9.156;2022-10-26T05:23:20;12.50;99.90
790;DHT22;378;48.844;9.156;2022-10-26T05:25:47;12.60;99.90
790;DHT22;378;48.844;9.156;2022-10-26T05:28:15;12.70;99.90
790;DHT22;378;48.844;9.156;2022-10-26T05:30:44;12.80;99.90
790;DHT22;378;48.844;9.156;2022-10-26T05:33:12;12.90;99.90
790;DHT22;378;48.844;9.156;2022-10-26T05:35:40;13.00;99.90
790;DHT22;378;48.844;9.156;2022-10-26T05:38:08;13.00;99.90
790;DHT22;378;48.844;9.156;2022-10-26T05:40:36;13.10;99.90
790;DHT22;378;48.844;9.156;2022-10-26T05:43:03;13.10;99.90
790;DHT22;378;48.844;9.156;2022-10-26T05:45:29;13.20;99.90
790;DHT22;378;48.844;9.156;2022-10-26T05:47:56;13.30;99.90
790;DHT22;378;48.844;9.156;2022-10-26T05:50:23;13.40;99.90
790;DHT22;378;48.844;9.156;2022-10-26T05:52:50;13.40;99.90
790;DHT22;378;48.844;9.156;2022-10-26T05:55:19;13.50;99.90
790;DHT22;378;48.844;9.156;2022-10-26T05:57:46;13.60;99.90
790;DHT22;378;48.844;9.156;2022-10-26T06:00:18;13.60;99.90
790;DHT22;378;48.844;9.156;2022-10-26T06:03:00;13.60;99.90
790;DHT22;378;48.844;9.156;2022-10-26T06:05:35;13.60;99.90
790;DHT22;378;48.844;9.156;2022-10-26T06:08:07;13.60;99.90
790;DHT22;378;48.844;9.156;2022-10-26T06:10:37;13.50;99.90
790;DHT22;378;48.844;9.156;2022-10-26T06:13:05;13.50;99.90
790;DHT22;378;48.844;9.156;2022-10-26T06:15:46;13.50;99.90
790;DHT22;378;48.844;9.156;2022-10-26T06:18:20;13.50;99.90
790;DHT22;378;48.844;9.156;2022-10-26T06:20:58;13.40;99.90
790;DHT22;378;48.844;9.156;2022-10-26T06:23:39;13.40;99.90
790;DHT22;378;48.844;9.156;2022-10-26T06:26:17;13.40;99.90
790;DHT22;378;48.844;9.156;2022-10-26T06:28:51;13.50;99.90
790;DHT22;378;48.844;9.156;2022-10-26T06:31:20;13.50;99.90
790;DHT22;378;48.844;9.156;2022-10-26T06:33:47;13.50;99.90
790;DHT22;378;48.844;9.156;2022-10-26T06:36:20;13.50;99.90
790;DHT22;378;48.844;9.156;2022-10-26T06:38:51;13.40;99.90
790;DHT22;378;48.844;9.156;2022-10-26T06:41:20;13.30;99.90
790;DHT22;378;48.844;9.156;2022-10-26T06:43:48;13.40;99.90
790;DHT22;378;48.844;9.156;2022-10-26T06:46:24;13.40;99.90
790;DHT22;378;48.844;9.156;2022-10-26T06:49:02;13.40;99.90
790;DHT22;378;48.844;9.156;2022-10-26T06:51:37;13.40;99.90
790;DHT22;378;48.844;9.156;2022-10-26T06:54:12;13.50;99.90
790;DHT22;378;48.844;9.156;2022-10-26T06:56:42;13.70;99.90
790;DHT22;378;48.844;9.156;2022-10-26T06:59:15;13.80;99.90
790;DHT22;378;48.844;9.156;2022-10-26T07:01:44;13.90;99.90
790;DHT22;378;48.844;9.156;2022-10-26T07:04:10;14.10;99.90
790;DHT22;378;48.844;9.156;2022-10-26T07:06:37;14.10;99.90
790;DHT22;378;48.844;9.156;2022-10-26T07:09:04;14.20;99.90
790;DHT22;378;48.844;9.156;2022-10-26T07:11:31;14.10;99.90
790;DHT22;378;48.844;9.156;2022-10-26T07:13:59;14.00;99.90
790;DHT22;378;48.844;9.156;2022-10-26T07:16:26;13.90;99.90
790;DHT22;378;48.844;9.156;2022-10-26T07:18:53;13.90;99.90
790;DHT22;378;48.844;9.156;2022-10-26T07:21:20;13.90;99.90
790;DHT22;378;48.844;9.156;2022-10-26T07:23:47;13.80;99.90
790;DHT22;378;48.844;9.156;2022-10-26T07:26:14;13.80;99.90
790;DHT22;378;48.844;9.156;2022-10-26T07:28:40;13.90;99.90
790;DHT22;378;48.844;9.156;2022-10-26T07:31:09;13.80;99.90
790;DHT22;378;48.844;9.156;2022-10-26T07:33:35;13.80;99.90
790;DHT22;378;48.844;9.156;2022-10-26T07:36:02;13.80;99.90
790;DHT22;378;48.844;9.156;2022-10-26T07:38:29;13.80;99.90
790;DHT22;378;48.844;9.156;2022-10-26T07:40:56;13.90;99.90
790;DHT22;378;48.844;9.156;2022-10-26T07:43:23;13.90;99.90
790;DHT22;378;48.844;9.156;2022-10-26T07:45:50;13.90;99.90
790;DHT22;378;48.844;9.156;2022-10-26T07:48:18;13.90;99.90
790;DHT22;378;48.844;9.156;2022-10-26T07:50:45;14.00;99.90
790;DHT22;378;48.844;9.156;2022-10-26T07:53:12;14.00;99.90
790;DHT22;378;48.844;9.156;2022-10-26T07:55:38;14.00;99.90
790;DHT22;378;48.844;9.156;2022-10-26T07:58:05;14.10;99.90
790;DHT22;378;48.844;9.156;2022-10-26T08:00:32;14.10;99.90
790;DHT22;378;48.844;9.156;2022-10-26T08:02:59;14.20;99.90
790;DHT22;378;48.844;9.156;2022-10-26T08:05:28;14.30;99.90
790;DHT22;378;48.844;9.156;2022-10-26T08:07:55;14.40;99.90
790;DHT22;378;48.844;9.156;2022-10-26T08:10:22;14.60;99.90
790;DHT22;378;48.844;9.156;2022-10-26T08:12:51;14.90;99.90
790;DHT22;378;48.844;9.156;2022-10-26T08:15:18;15.10;99.90
790;DHT22;378;48.844;9.156;2022-10-26T08:17:45;15.20;99.90
790;DHT22;378;48.844;9.156;2022-10-26T08:20:12;15.30;99.90
790;DHT22;378;48.844;9.156;2022-10-26T08:22:40;15.50;99.90
790;DHT22;378;48.844;9.156;2022-10-26T08:25:07;15.70;99.90
790;DHT22;378;48.844;9.156;2022-10-26T08:27:34;15.80;99.90
790;DHT22;378;48.844;9.156;2022-10-26T08:30:01;15.80;99.90
790;DHT22;378;48.844;9.156;2022-10-26T08:32:28;15.90;99.90
790;DHT22;378;48.844;9.156;2022-10-26T08:34:54;16.10;99.90
790;DHT22;378;48.844;9.156;2022-10-26T08:37:21;16.20;99.90
790;DHT22;378;48.844;9.156;2022-10-26T08:39:49;16.30;99.90
790;DHT22;378;48.844;9.156;2022-10-26T08:42:21;16.30;99.90
790;DHT22;378;48.844;9.156;2022-10-26T08:44:51;16.20;99.90
790;DHT22;378;48.844;9.156;2022-10-26T08:47:25;16.30;99.90
790;DHT22;378;48.844;9.156;2022-10-26T08:49:58;16.30;99.90
790;DHT22;378;48.844;9.156;2022-10-26T08:52:30;16.40;99.90
790;DHT22;378;48.844;9.156;2022-10-26T08:55:02;16.50;99.90
790;DHT22;378;48.844;9.156;2022-10-26T08:57:37;16.60;99.90
790;DHT22;378;48.844;9.156;2022-10-26T09:00:09;16.80;99.90
790;DHT22;378;48.844;9.156;2022-10-26T09:02:36;16.90;99.90
790;DHT22;378;48.844;9.156;2022-10-26T09:05:13;17.00;99.90
790;DHT22;378;48.844;9.156;2022-10-26T09:07:47;17.10;99.90
790;DHT22;378;48.844;9.156;2022-10-26T09:10:32;17.40;99.90
790;DHT22;378;48.844;9.156;2022-10-26T09:13:05;17.60;99.90
790;DHT22;378;48.844;9.156;2022-10-26T09:15:44;17.80;99.90
790;DHT22;378;48.844;9.156;2022-10-26T09:18:22;18.10;99.90
790;DHT22;378;48.844;9.156;2022-10-26T09:21:00;18.50;99.90
790;DHT22;378;48.844;9.156;2022-10-26T09:23:40;18.80;99.90
790;DHT22;378;48.844;9.156;2022-10-26T09:26:14;19.00;99.90
790;DHT22;378;48.844;9.156;2022-10-26T09:28:47;19.40;99.90
790;DHT22;378;48.844;9.156;2022-10-26T09:31:16;19.60;99.90
790;DHT22;378;48.844;9.156;2022-10-26T09:33:43;19.90;99.90
790;DHT22;378;48.844;9.156;2022-10-26T09:36:12;20.20;99.90
790;DHT22;378;48.844;9.156;2022-10-26T09:38:46;20.40;99.90
790;DHT22;378;48.844;9.156;2022-10-26T09:41:22;20.60;99.90
790;DHT22;378;48.844;9.156;2022-10-26T09:43:54;20.90;99.90
790;DHT22;378;48.844;9.156;2022-10-26T09:46:27;20.90;99.90
790;DHT22;378;48.844;9.156;2022-10-26T09:48:58;20.80;99.90
790;DHT22;378;48.844;9.156;2022-10-26T09:51:25;20.90;99.90
790;DHT22;378;48.844;9.156;2022-10-26T09:53:53;20.80;99.90
790;DHT22;378;48.844;9.156;2022-10-26T09:56:24;20.50;99.90
790;DHT22;378;48.844;9.156;2022-10-26T09:58:53;20.40;99.90
790;DHT22;378;48.844;9.156;2022-10-26T10:01:27;20.40;99.90
790;DHT22;378;48.844;9.156;2022-10-26T10:04:16;20.40;99.90
790;DHT22;378;48.844;9.156;2022-10-26T10:06:45;20.20;99.90
790;DHT22;378;48.844;9.156;2022-10-26T10:09:14;20.00;99.90
790;DHT22;378;48.844;9.156;2022-10-26T10:11:44;19.90;99.90
790;DHT22;378;48.844;9.156;2022-10-26T10:14:15;19.70;99.90
790;DHT22;378;48.844;9.156;2022-10-26T10:16:50;19.60;99.90
790;DHT22;378;48.844;9.156;2022-10-26T10:19:22;19.70;99.90
790;DHT22;378;48.844;9.156;2022-10-26T10:21:51;19.70;99.90
790;DHT22;378;48.844;9.156;2022-10-26T10:24:27;19.80;99.90
790;DHT22;378;48.844;9.156;2022-10-26T10:26:58;19.70;99.90
790;DHT22;378;48.844;9.156;2022-10-26T10:29:26;19.80;99.90
790;DHT22;378;48.844;9.156;2022-10-26T10:31:56;19.80;99.90
790;DHT22;378;48.844;9.156;2022-10-26T10:34:23;19.90;99.90
790;DHT22;378;48.844;9.156;2022-10-26T10:36:50;19.90;99.90
790;DHT22;378;48.844;9.156;2022-10-26T10:39:36;19.90;99.90
790;DHT22;378;48.844;9.156;2022-10-26T10:42:13;20.00;99.90
790;DHT22;378;48.844;9.156;2022-10-26T10:44:42;19.90;99.90
790;DHT22;378;48.844;9.156;2022-10-26T10:47:22;19.80;99.90
790;DHT22;378;48.844;9.156;2022-10-26T10:49:54;19.90;99.90
790;DHT22;378;48.844;9.156;2022-10-26T10:52:24;20.00;99.90
790;DHT22;378;48.844;9.156;2022-10-26T10:54:57;20.00;99.90
790;DHT22;378;48.844;9.156;2022-10-26T10:57:33;20.10;99.90
790;DHT22;378;48.844;9.156;2022-10-26T11:00:03;20.20;99.90
790;DHT22;378;48.844;9.156;2022-10-26T11:05:43;20.30;99.90
790;DHT22;378;48.844;9.156;2022-10-26T11:08:16;20.50;99.90
790;DHT22;378;48.844;9.156;2022-10-26T11:10:49;20.60;99.90
790;DHT22;378;48.844;9.156;2022-10-26T11:13:23;20.70;99.90
790;DHT22;378;48.844;9.156;2022-10-26T11:15:54;20.80;99.90
790;DHT22;378;48.844;9.156;2022-10-26T11:18:26;21.00;99.90
790;DHT22;378;48.844;9.156;2022-10-26T11:21:00;21.10;99.90
790;DHT22;378;48.844;9.156;2022-10-26T11:23:35;21.20;99.90
790;DHT22;378;48.844;9.156;2022-10-26T11:26:08;21.30;99.90
790;DHT22;378;48.844;9.156;2022-10-26T11:28:45;21.60;99.90
790;DHT22;378;48.844;9.156;2022-10-26T11:31:17;22.10;99.90
790;DHT22;378;48.844;9.156;2022-10-26T11:33:48;22.40;99.90
790;DHT22;378;48.844;9.156;2022-10-26T11:36:22;22.70;99.90
790;DHT22;378;48.844;9.156;2022-10-26T11:38:52;23.00;99.90
790;DHT22;378;48.844;9.156;2022-10-26T11:41:24;23.30;99.90
790;DHT22;378;48.844;9.156;2022-10-26T11:43:58;23.50;99.90
790;DHT22;378;48.844;9.156;2022-10-26T11:46:29;23.50;99.90
790;DHT22;378;48.844;9.156;2022-10-26T11:49:00;23.40;99.90
790;DHT22;378;48.844;9.156;2022-10-26T11:51:37;23.30;99.90
790;DHT22;378;48.844;9.156;2022-10-26T11:54:10;23.30;99.90
790;DHT22;378;48.844;9.156;2022-10-26T11:56:42;23.20;99.90
790;DHT22;378;48.844;9.156;2022-10-26T11:59:17;23.20;99.90
790;DHT22;378;48.844;9.156;2022-10-26T12:01:46;23.30;99.90
790;DHT22;378;48.844;9.156;2022-10-26T12:04:13;23.20;99.90
790;DHT22;378;48.844;9.156;2022-10-26T12:06:40;23.10;99.90
790;DHT22;378;48.844;9.156;2022-10-26T12:09:12;23.10;99.90
790;DHT22;378;48.844;9.156;2022-10-26T12:11:45;23.10;99.90
790;DHT22;378;48.844;9.156;2022-10-26T12:14:20;23.20;99.90
790;DHT22;378;48.844;9.156;2022-10-26T12:16:56;23.30;99.90
790;DHT22;378;48.844;9.156;2022-10-26T12:19:28;23.30;99.90
790;DHT22;378;48.844;9.156;2022-10-26T12:21:57;23.20;99.90
790;DHT22;378;48.844;9.156;2022-10-26T12:24:26;23.10;99.90
790;DHT22;378;48.844;9.156;2022-10-26T12:26:54;23.10;99.90
790;DHT22;378;48.844;9.156;2022-10-26T12:29:44;23.20;99.90
790;DHT22;378;48.844;9.156;2022-10-26T12:35:44;23.30;99.90
790;DHT22;378;48.844;9.156;2022-10-26T12:41:22;23.40;99.90
790;DHT22;378;48.844;9.156;2022-10-26T12:43:49;23.50;99.90
790;DHT22;378;48.844;9.156;2022-10-26T12:46:42;23.50;99.90
790;DHT22;378;48.844;9.156;2022-10-26T12:52:44;23.60;99.90
790;DHT22;378;48.844;9.156;2022-10-26T12:55:31;23.60;99.90
790;DHT22;378;48.844;9.156;2022-10-26T13:01:17;23.80;99.90
790;DHT22;378;48.844;9.156;2022-10-26T13:03:55;23.90;99.90
790;DHT22;378;48.844;9.156;2022-10-26T13:06:45;24.00;99.90
790;DHT22;378;48.844;9.156;2022-10-26T13:09:16;24.20;99.90
790;DHT22;378;48.844;9.156;2022-10-26T13:11:47;24.40;99.90
790;DHT22;378;48.844;9.156;2022-10-26T13:14:19;24.50;99.90
790;DHT22;378;48.844;9.156;2022-10-26T13:16:47;24.50;99.90
790;DHT22;378;48.844;9.156;2022-10-26T13:19:30;24.40;99.90
790;DHT22;378;48.844;9.156;2022-10-26T13:21:58;24.10;99.90
790;DHT22;378;48.844;9.156;2022-10-26T13:24:27;23.90;99.90
790;DHT22;378;48.844;9.156;2022-10-26T13:33:20;23.20;99.90
790;DHT22;378;48.844;9.156;2022-10-26T13:35:51;23.20;99.90
790;DHT22;378;48.844;9.156;2022-10-26T13:38:22;23.00;99.90
790;DHT22;378;48.844;9.156;2022-10-26T13:40:55;22.90;99.90
790;DHT22;378;48.844;9.156;2022-10-26T13:43:26;22.80;99.90
790;DHT22;378;48.844;9.156;2022-10-26T13:45:55;22.70;99.90
790;DHT22;378;48.844;9.156;2022-10-26T13:48:32;22.60;99.90
790;DHT22;378;48.844;9.156;2022-10-26T13:51:10;22.40;99.90
790;DHT22;378;48.844;9.156;2022-10-26T13:53:43;22.20;99.90
790;DHT22;378;48.844;9.156;2022-10-26T13:56:18;22.00;99.90
790;DHT22;378;48.844;9.156;2022-10-26T13:58:49;21.90;99.90
790;DHT22;378;48.844;9.156;2022-10-26T14:01:19;21.80;99.90
790;DHT22;378;48.844;9.156;2022-10-26T14:03:48;21.80;99.90
790;DHT22;378;48.844;9.156;2022-10-26T14:06:20;21.90;99.90
790;DHT22;378;48.844;9.156;2022-10-26T14:08:50;22.00;99.90
790;DHT22;378;48.844;9.156;2022-10-26T14:11:19;22.00;99.90
790;DHT22;378;48.844;9.156;2022-10-26T14:13:48;22.00;99.90
790;DHT22;378;48.844;9.156;2022-10-26T14:16:17;21.90;99.90
790;DHT22;378;48.844;9.156;2022-10-26T14:18:46;21.90;99.90
790;DHT22;378;48.844;9.156;2022-10-26T14:21:17;21.90;99.90
790;DHT22;378;48.844;9.156;2022-10-26T14:23:46;21.80;99.90
790;DHT22;378;48.844;9.156;2022-10-26T14:26:18;21.90;99.90
790;DHT22;378;48.844;9.156;2022-10-26T14:28:48;22.00;99.90
790;DHT22;378;48.844;9.156;2022-10-26T14:31:21;22.00;99.90
790;DHT22;378;48.844;9.156;2022-10-26T14:33:49;22.10;99.90
790;DHT22;378;48.844;9.156;2022-10-26T14:36:20;22.00;99.90
790;DHT22;378;48.844;9.156;2022-10-26T14:38:50;21.90;99.90
790;DHT22;378;48.844;9.156;2022-10-26T14:41:19;21.80;99.90
790;DHT22;378;48.844;9.156;2022-10-26T14:43:46;21.50;99.90
790;DHT22;378;48.844;9.156;2022-10-26T14:46:15;21.40;99.90
790;DHT22;378;48.844;9.156;2022-10-26T14:48:52;21.10;99.90
790;DHT22;378;48.844;9.156;2022-10-26T14:51:25;20.80;99.90
790;DHT22;378;48.844;9.156;2022-10-26T14:53:54;20.60;99.90
790;DHT22;378;48.844;9.156;2022-10-26T14:56:25;20.50;99.90
790;DHT22;378;48.844;9.156;2022-10-26T14:58:54;20.30;99.90
790;DHT22;378;48.844;9.156;2022-10-26T15:01:27;20.20;99.90
790;DHT22;378;48.844;9.156;2022-10-26T15:03:56;20.10;99.90
790;DHT22;378;48.844;9.156;2022-10-26T15:06:39;20.00;99.90
790;DHT22;378;48.844;9.156;2022-10-26T15:09:30;20.00;99.90
790;DHT22;378;48.844;9.156;2022-10-26T15:11:58;19.90;99.90
790;DHT22;378;48.844;9.156;2022-10-26T15:14:27;19.80;99.90
790;DHT22;378;48.844;9.156;2022-10-26T15:16:56;19.80;99.90
790;DHT22;378;48.844;9.156;2022-10-26T15:19:23;19.70;99.90
790;DHT22;378;48.844;9.156;2022-10-26T15:21:53;19.50;99.90
790;DHT22;378;48.844;9.156;2022-10-26T15:24:31;19.40;99.90
790;DHT22;378;48.844;9.156;2022-10-26T15:26:59;19.30;99.90
790;DHT22;378;48.844;9.156;2022-10-26T15:29:37;19.30;99.90
790;DHT22;378;48.844;9.156;2022-10-26T15:32:16;19.10;99.90
790;DHT22;378;48.844;9.156;2022-10-26T15:34:47;19.10;99.90
790;DHT22;378;48.844;9.156;2022-10-26T15:37:16;19.00;99.90
790;DHT22;378;48.844;9.156;2022-10-26T15:39:42;18.80;99.90
790;DHT22;378;48.844;9.156;2022-10-26T15:42:12;18.60;99.90
790;DHT22;378;48.844;9.156;2022-10-26T15:44:39;18.50;99.90
790;DHT22;378;48.844;9.156;2022-10-26T15:47:16;18.40;99.90
790;DHT22;378;48.844;9.156;2022-10-26T15:49:43;18.40;99.90
790;DHT22;378;48.844;9.156;2022-10-26T15:52:10;18.30;99.90
790;DHT22;378;48.844;9.156;2022-10-26T15:54:38;18.20;99.90
790;DHT22;378;48.844;9.156;2022-10-26T15:57:08;18.10;99.90
790;DHT22;378;48.844;9.156;2022-10-26T15:59:37;18.10;99.90
790;DHT22;378;48.844;9.156;2022-10-26T16:02:11;17.90;99.90
790;DHT22;378;48.844;9.156;2022-10-26T16:04:38;17.80;99.90
790;DHT22;378;48.844;9.156;2022-10-26T16:07:06;17.80;99.90
790;DHT22;378;48.844;9.156;2022-10-26T16:09:37;17.60;99.90
790;DHT22;378;48.844;9.156;2022-10-26T16:12:06;17.50;99.90
790;DHT22;378;48.844;9.156;2022-10-26T16:14:33;17.30;99.90
790;DHT22;378;48.844;9.156;2022-10-26T16:17:00;17.20;99.90
790;DHT22;378;48.844;9.156;2022-10-26T16:19:27;17.20;99.90
790;DHT22;378;48.844;9.156;2022-10-26T16:21:54;17.00;99.90
790;DHT22;378;48.844;9.156;2022-10-26T16:24:21;16.90;99.90
790;DHT22;378;48.844;9.156;2022-10-26T16:26:49;16.70;99.90
790;DHT22;378;48.844;9.156;2022-10-26T16:29:16;16.70;99.90
790;DHT22;378;48.844;9.156;2022-10-26T16:31:43;16.70;99.90
790;DHT22;378;48.844;9.156;2022-10-26T16:34:10;16.70;99.90
790;DHT22;378;48.844;9.156;2022-10-26T16:36:37;16.80;99.90
790;DHT22;378;48.844;9.156;2022-10-26T16:39:05;16.80;99.90
790;DHT22;378;48.844;9.156;2022-10-26T16:41:31;16.90;99.90
790;DHT22;378;48.844;9.156;2022-10-26T16:44:00;16.90;99.90
790;DHT22;378;48.844;9.156;2022-10-26T16:46:27;16.80;99.90
790;DHT22;378;48.844;9.156;2022-10-26T16:48:54;16.70;99.90
790;DHT22;378;48.844;9.156;2022-10-26T16:51:22;16.80;99.90
790;DHT22;378;48.844;9.156;2022-10-26T16:53:52;16.90;99.90
790;DHT22;378;48.844;9.156;2022-10-26T16:56:21;17.00;99.90
790;DHT22;378;48.844;9.156;2022-10-26T16:58:48;17.00;99.90
790;DHT22;378;48.844;9.156;2022-10-26T17:01:18;17.00;99.90
790;DHT22;378;48.844;9.156;2022-10-26T17:03:45;17.00;99.90
790;DHT22;378;48.844;9.156;2022-10-26T17:06:12;16.90;99.90
790;DHT22;378;48.844;9.156;2022-10-26T17:08:39;16.70;99.90
790;DHT22;378;48.844;9.156;2022-10-26T17:11:08;16.60;99.90
790;DHT22;378;48.844;9.156;2022-10-26T17:13:36;16.50;99.90
790;DHT22;378;48.844;9.156;2022-10-26T17:16:04;16.50;99.90
790;DHT22;378;48.844;9.156;2022-10-26T17:18:32;16.60;99.90
790;DHT22;378;48.844;9.156;2022-10-26T17:20:59;16.60;99.90